Check out our new PWSWeather beta!
PWSweather.com
Personal Weather Stations
Station Observations
METEOC500
Santo Antonio, FunchalPT 2020

Santo AntonioFunchalPT 2020

Lat: 32.678227, Lon: -16.945054

Elevation: 1669.94751

Station Type: WH Series

High Low Average
Temperature 68.2°F20.1°C 56.7°F13.7°C 61.6°F16.4°C
Dew Point 59.2°F15.1°C 50.7°F10.4°C 55.2°F12.9°C
Winds 9.6 mph 15.4 kmh Calm Calm 4.0 mph WSW6.4 kmh WSW
Wind Gusts 15.0 mph24.1 kmh -- 9.0 mph14.5 kmh
Humidity 93% 63% 80%
Pressure 30.24 in1024.0 mb 30.13 in1020.3 mb -
Precipitation 0.04 in1.0 mm - -
Hour Temp Dew Point Humidity Winds Wind Gusts Pressure Precip Precip Rate Daily Precip Total
12:00 AM 58.1°F14.5°C 52.9°F11.6°C 83% 4.9 mph NNW7.9 kmh NNW 10.1 mph16.3 kmh 30.21 in1023.0 mb 0.00 in0.0 mm 0.00 in0.0 mm 0.00 in0.0 mm
12:15 AM 58.1°F14.5°C 52.7°F11.5°C 82% 7.8 mph NNW12.6 kmh NNW 12.5 mph20.1 kmh 30.20 in1022.7 mb 0.00 in0.0 mm 0.00 in0.0 mm 0.00 in0.0 mm
12:30 AM 58.1°F14.5°C 52.7°F11.5°C 82% 4.7 mph NNW7.6 kmh NNW 10.1 mph16.3 kmh 30.20 in1022.7 mb 0.00 in0.0 mm 0.00 in0.0 mm 0.00 in0.0 mm
12:45 AM 57.7°F14.3°C 51.6°F10.9°C 80% 6.9 mph NNW11.1 kmh NNW 10.1 mph16.3 kmh 30.20 in1022.7 mb 0.00 in0.0 mm 0.00 in0.0 mm 0.00 in0.0 mm
01:00 AM 57.7°F14.3°C 51.6°F10.9°C 80% 6.0 mph NW9.7 kmh NW 10.1 mph16.3 kmh 30.19 in1022.4 mb 0.00 in0.0 mm 0.00 in0.0 mm 0.00 in0.0 mm
01:15 AM 57.7°F14.3°C 51.3°F10.7°C 79% 3.4 mph NNW5.5 kmh NNW 10.1 mph16.3 kmh 30.19 in1022.4 mb 0.00 in0.0 mm 0.00 in0.0 mm 0.00 in0.0 mm
01:30 AM 57.6°F14.2°C 51.1°F10.6°C 79% 3.1 mph N5.0 kmh N 7.6 mph12.2 kmh 30.18 in1022.0 mb 0.00 in0.0 mm 0.00 in0.0 mm 0.00 in0.0 mm
01:45 AM 57.6°F14.2°C 50.7°F10.4°C 78% 6.9 mph N11.1 kmh N 7.6 mph12.2 kmh 30.18 in1022.0 mb 0.00 in0.0 mm 0.00 in0.0 mm 0.00 in0.0 mm
02:00 AM 57.9°F14.4°C 52.2°F11.2°C 81% 7.6 mph N12.2 kmh N 10.1 mph16.3 kmh 30.18 in1022.0 mb 0.00 in0.0 mm 0.00 in0.0 mm 0.00 in0.0 mm
02:15 AM 57.7°F14.3°C 52.3°F11.3°C 82% 4.9 mph N7.9 kmh N 10.1 mph16.3 kmh 30.17 in1021.7 mb 0.00 in0.0 mm 0.00 in0.0 mm 0.00 in0.0 mm
02:30 AM 57.7°F14.3°C 52.3°F11.3°C 82% 5.6 mph NNW9.0 kmh NNW 10.1 mph16.3 kmh 30.18 in1022.0 mb 0.00 in0.0 mm 0.00 in0.0 mm 0.00 in0.0 mm
02:45 AM 57.7°F14.3°C 52.7°F11.5°C 83% 4.9 mph NNW7.9 kmh NNW 10.1 mph16.3 kmh 30.17 in1021.7 mb 0.00 in0.0 mm 0.00 in0.0 mm 0.00 in0.0 mm
03:00 AM 57.6°F14.2°C 52.5°F11.4°C 83% 5.4 mph N8.7 kmh N 10.1 mph16.3 kmh 30.17 in1021.7 mb 0.00 in0.0 mm 0.00 in0.0 mm 0.00 in0.0 mm
03:15 AM 57.6°F14.2°C 52.2°F11.2°C 82% 5.6 mph NNW9.0 kmh NNW 10.1 mph16.3 kmh 30.17 in1021.7 mb 0.00 in0.0 mm 0.00 in0.0 mm 0.00 in0.0 mm
03:30 AM 57.6°F14.2°C 51.8°F11.0°C 81% 6.0 mph NW9.7 kmh NW 12.5 mph20.1 kmh 30.16 in1021.3 mb 0.00 in0.0 mm 0.00 in0.0 mm 0.00 in0.0 mm
03:45 AM 57.4°F14.1°C 52.0°F11.1°C 82% 7.6 mph NW12.2 kmh NW 12.5 mph20.1 kmh 30.16 in1021.3 mb 0.00 in0.0 mm 0.00 in0.0 mm 0.00 in0.0 mm
04:00 AM 57.4°F14.1°C 52.0°F11.1°C 82% 5.6 mph NW9.0 kmh NW 12.5 mph20.1 kmh 30.16 in1021.3 mb 0.00 in0.0 mm 0.00 in0.0 mm 0.00 in0.0 mm
04:15 AM 57.4°F14.1°C 51.6°F10.9°C 81% 5.4 mph NNW8.7 kmh NNW 10.1 mph16.3 kmh 30.17 in1021.7 mb 0.00 in0.0 mm 0.00 in0.0 mm 0.00 in0.0 mm
04:30 AM 57.2°F14.0°C 51.4°F10.8°C 81% 8.1 mph N13.0 kmh N 12.5 mph20.1 kmh 30.17 in1021.7 mb 0.00 in0.0 mm 0.00 in0.0 mm 0.00 in0.0 mm
04:45 AM 57.2°F14.0°C 51.8°F11.0°C 82% 5.6 mph NNW9.0 kmh NNW 10.1 mph16.3 kmh 30.17 in1021.7 mb 0.00 in0.0 mm 0.00 in0.0 mm 0.00 in0.0 mm
05:30 AM 57.2°F14.0°C 52.3°F11.3°C 84% 6.0 mph NW9.7 kmh NW 12.5 mph20.1 kmh 30.17 in1021.7 mb 0.00 in0.0 mm 0.00 in0.0 mm 0.00 in0.0 mm
06:00 AM 57.0°F13.9°C 51.6°F10.9°C 82% 7.8 mph N12.6 kmh N 10.1 mph16.3 kmh 30.17 in1021.7 mb 0.00 in0.0 mm 0.00 in0.0 mm 0.00 in0.0 mm
06:15 AM 57.0°F13.9°C 51.3°F10.7°C 81% 8.7 mph NNW14.0 kmh NNW 10.1 mph16.3 kmh 30.17 in1021.7 mb 0.00 in0.0 mm 0.00 in0.0 mm 0.00 in0.0 mm
06:30 AM 57.2°F14.0°C 51.8°F11.0°C 82% 4.7 mph NW7.6 kmh NW 10.1 mph16.3 kmh 30.17 in1021.7 mb 0.00 in0.0 mm 0.00 in0.0 mm 0.00 in0.0 mm
06:45 AM 57.0°F13.9°C 50.9°F10.5°C 80% 4.7 mph NNW7.6 kmh NNW 10.1 mph16.3 kmh 30.18 in1022.0 mb 0.00 in0.0 mm 0.00 in0.0 mm 0.00 in0.0 mm
07:00 AM 57.0°F13.9°C 51.3°F10.7°C 81% 3.8 mph NNW6.1 kmh NNW 10.1 mph16.3 kmh 30.18 in1022.0 mb 0.00 in0.0 mm 0.00 in0.0 mm 0.00 in0.0 mm
07:15 AM 56.8°F13.8°C 51.4°F10.8°C 82% 3.4 mph NNW5.5 kmh NNW 10.1 mph16.3 kmh 30.18 in1022.0 mb 0.00 in0.0 mm 0.00 in0.0 mm 0.00 in0.0 mm
07:30 AM 56.7°F13.7°C 51.3°F10.7°C 82% 4.7 mph NNW7.6 kmh NNW 10.1 mph16.3 kmh 30.18 in1022.0 mb 0.00 in0.0 mm 0.00 in0.0 mm 0.00 in0.0 mm
07:45 AM 56.8°F13.8°C 51.4°F10.8°C 82% 4.9 mph NNW7.9 kmh NNW 10.1 mph16.3 kmh 30.19 in1022.4 mb 0.00 in0.0 mm 0.00 in0.0 mm 0.00 in0.0 mm
08:00 AM 56.7°F13.7°C 51.6°F10.9°C 83% 7.2 mph NNW11.6 kmh NNW 7.6 mph12.2 kmh 30.19 in1022.4 mb 0.00 in0.0 mm 0.00 in0.0 mm 0.00 in0.0 mm
08:15 AM 56.7°F13.7°C 50.9°F10.5°C 81% 6.5 mph NW10.5 kmh NW 10.1 mph16.3 kmh 30.19 in1022.4 mb 0.00 in0.0 mm 0.00 in0.0 mm 0.00 in0.0 mm
08:30 AM 57.4°F14.1°C 51.6°F10.9°C 81% 3.4 mph N5.5 kmh N 7.6 mph12.2 kmh 30.20 in1022.7 mb 0.00 in0.0 mm 0.00 in0.0 mm 0.00 in0.0 mm
08:45 AM 58.3°F14.6°C 51.8°F11.0°C 79% 3.1 mph NNW5.0 kmh NNW 7.6 mph12.2 kmh 30.20 in1022.7 mb 0.00 in0.0 mm 0.00 in0.0 mm 0.00 in0.0 mm
09:01 AM 59.2°F15.1°C 52.3°F11.3°C 78% 3.1 mph N5.0 kmh N 7.6 mph12.2 kmh 30.21 in1023.0 mb 0.00 in0.0 mm 0.00 in0.0 mm 0.00 in0.0 mm
09:16 AM 60.8°F16.0°C 52.5°F11.4°C 74% 0.9 mph E1.4 kmh E 4.9 mph7.9 kmh 30.21 in1023.0 mb 0.00 in0.0 mm 0.00 in0.0 mm 0.00 in0.0 mm
09:31 AM 63.7°F17.6°C 52.5°F11.4°C 67% 1.3 mph SE2.1 kmh SE 7.6 mph12.2 kmh 30.21 in1023.0 mb 0.00 in0.0 mm 0.00 in0.0 mm 0.00 in0.0 mm
09:46 AM 65.5°F18.6°C 53.8°F12.1°C 66% 1.3 mph SSW2.1 kmh SSW 10.1 mph16.3 kmh 30.21 in1023.0 mb 0.00 in0.0 mm 0.00 in0.0 mm 0.00 in0.0 mm
10:01 AM 66.4°F19.1°C 54.7°F12.6°C 66% 4.5 mph ESE7.2 kmh ESE 10.1 mph16.3 kmh 30.21 in1023.0 mb 0.00 in0.0 mm 0.00 in0.0 mm 0.00 in0.0 mm
10:16 AM 66.6°F19.2°C 53.6°F12.0°C 63% Calm Calm 12.5 mph20.1 kmh 30.21 in1023.0 mb 0.00 in0.0 mm 0.00 in0.0 mm 0.00 in0.0 mm
10:31 AM 66.9°F19.4°C 54.9°F12.7°C 65% 3.8 mph SE6.1 kmh SE 12.5 mph20.1 kmh 30.22 in1023.4 mb 0.00 in0.0 mm 0.00 in0.0 mm 0.00 in0.0 mm
10:46 AM 67.6°F19.8°C 55.9°F13.3°C 66% 4.7 mph S7.6 kmh S 12.5 mph20.1 kmh 30.22 in1023.4 mb 0.00 in0.0 mm 0.00 in0.0 mm 0.00 in0.0 mm
11:01 AM 67.5°F19.7°C 56.5°F13.6°C 68% 4.5 mph S7.2 kmh S 15.0 mph24.1 kmh 30.22 in1023.4 mb 0.00 in0.0 mm 0.00 in0.0 mm 0.00 in0.0 mm
11:16 AM 67.3°F19.6°C 55.9°F13.3°C 67% 5.6 mph SSW9.0 kmh SSW 7.6 mph12.2 kmh 30.21 in1023.0 mb 0.00 in0.0 mm 0.00 in0.0 mm 0.00 in0.0 mm
11:31 AM 67.3°F19.6°C 56.3°F13.5°C 68% 3.8 mph SW6.1 kmh SW 7.6 mph12.2 kmh 30.21 in1023.0 mb 0.00 in0.0 mm 0.00 in0.0 mm 0.00 in0.0 mm
11:46 AM 67.5°F19.7°C 57.4°F14.1°C 70% 1.8 mph E2.9 kmh E 12.5 mph20.1 kmh 30.21 in1023.0 mb 0.00 in0.0 mm 0.00 in0.0 mm 0.00 in0.0 mm
12:01 PM 67.1°F19.5°C 56.7°F13.7°C 69% 4.5 mph SSE7.2 kmh SSE 12.5 mph20.1 kmh 30.19 in1022.4 mb 0.00 in0.0 mm 0.00 in0.0 mm 0.00 in0.0 mm
12:16 PM 67.1°F19.5°C 56.7°F13.7°C 69% 7.8 mph SSE12.6 kmh SSE 12.5 mph20.1 kmh 30.19 in1022.4 mb 0.00 in0.0 mm 0.00 in0.0 mm 0.00 in0.0 mm
12:31 PM 67.3°F19.6°C 56.8°F13.8°C 69% 7.8 mph E12.6 kmh E 10.1 mph16.3 kmh 30.18 in1022.0 mb 0.00 in0.0 mm 0.00 in0.0 mm 0.00 in0.0 mm
12:46 PM 67.3°F19.6°C 57.2°F14.0°C 70% 6.9 mph SSE11.1 kmh SSE 12.5 mph20.1 kmh 30.17 in1021.7 mb 0.00 in0.0 mm 0.00 in0.0 mm 0.00 in0.0 mm
01:01 PM 67.6°F19.8°C 57.9°F14.4°C 71% 8.5 mph S13.7 kmh S 12.5 mph20.1 kmh 30.16 in1021.3 mb 0.00 in0.0 mm 0.00 in0.0 mm 0.00 in0.0 mm
01:16 PM 68.0°F20.0°C 59.0°F15.0°C 73% 4.7 mph E7.6 kmh E 15.0 mph24.1 kmh 30.16 in1021.3 mb 0.00 in0.0 mm 0.00 in0.0 mm 0.00 in0.0 mm
01:31 PM 67.6°F19.8°C 59.0°F15.0°C 74% 3.8 mph SE6.1 kmh SE 12.5 mph20.1 kmh 30.15 in1021.0 mb 0.00 in0.0 mm 0.00 in0.0 mm 0.00 in0.0 mm
01:46 PM 67.6°F19.8°C 58.3°F14.6°C 72% 1.3 mph S2.1 kmh S 10.1 mph16.3 kmh 30.15 in1021.0 mb 0.00 in0.0 mm 0.00 in0.0 mm 0.00 in0.0 mm
02:01 PM 67.8°F19.9°C 57.2°F14.0°C 69% 6.0 mph SE9.7 kmh SE 10.1 mph16.3 kmh 30.14 in1020.7 mb 0.00 in0.0 mm 0.00 in0.0 mm 0.00 in0.0 mm
02:16 PM 68.2°F20.1°C 58.8°F14.9°C 72% 5.6 mph SE9.0 kmh SE 10.1 mph16.3 kmh 30.14 in1020.7 mb 0.00 in0.0 mm 0.00 in0.0 mm 0.00 in0.0 mm
02:31 PM 68.0°F20.0°C 59.0°F15.0°C 73% 9.6 mph SE15.4 kmh SE 15.0 mph24.1 kmh 30.13 in1020.3 mb 0.00 in0.0 mm 0.00 in0.0 mm 0.00 in0.0 mm
02:46 PM 67.6°F19.8°C 58.3°F14.6°C 72% 3.1 mph SW5.0 kmh SW 12.5 mph20.1 kmh 30.14 in1020.7 mb 0.00 in0.0 mm 0.00 in0.0 mm 0.00 in0.0 mm
03:01 PM 68.0°F20.0°C 58.6°F14.8°C 72% 1.3 mph SW2.1 kmh SW 15.0 mph24.1 kmh 30.13 in1020.3 mb 0.00 in0.0 mm 0.00 in0.0 mm 0.00 in0.0 mm
03:16 PM 68.2°F20.1°C 59.2°F15.1°C 73% 9.6 mph SE15.4 kmh SE 12.5 mph20.1 kmh 30.13 in1020.3 mb 0.00 in0.0 mm 0.00 in0.0 mm 0.00 in0.0 mm
03:31 PM 68.0°F20.0°C 59.0°F15.0°C 73% 1.6 mph S2.6 kmh S 12.5 mph20.1 kmh 30.13 in1020.3 mb 0.00 in0.0 mm 0.00 in0.0 mm 0.00 in0.0 mm
03:46 PM 67.6°F19.8°C 58.3°F14.6°C 72% 4.0 mph S6.4 kmh S 10.1 mph16.3 kmh 30.14 in1020.7 mb 0.00 in0.0 mm 0.00 in0.0 mm 0.00 in0.0 mm
04:01 PM 66.7°F19.3°C 59.0°F15.0°C 76% 2.5 mph S4.0 kmh S 10.1 mph16.3 kmh 30.14 in1020.7 mb 0.00 in0.0 mm 0.00 in0.0 mm 0.00 in0.0 mm
04:16 PM 65.3°F18.5°C 58.3°F14.6°C 78% 2.9 mph SSE4.7 kmh SSE 7.6 mph12.2 kmh 30.14 in1020.7 mb 0.00 in0.0 mm 0.00 in0.0 mm 0.00 in0.0 mm
04:31 PM 64.4°F18.0°C 57.7°F14.3°C 79% 1.3 mph S2.1 kmh S 4.9 mph7.9 kmh 30.15 in1021.0 mb 0.00 in0.0 mm 0.00 in0.0 mm 0.00 in0.0 mm
04:46 PM 64.0°F17.8°C 57.4°F14.1°C 79% 0.7 mph SE1.1 kmh SE 4.9 mph7.9 kmh 30.15 in1021.0 mb 0.00 in0.0 mm 0.00 in0.0 mm 0.00 in0.0 mm
05:01 PM 63.7°F17.6°C 57.4°F14.1°C 80% 1.8 mph E2.9 kmh E 4.9 mph7.9 kmh 30.14 in1020.7 mb 0.00 in0.0 mm 0.00 in0.0 mm 0.00 in0.0 mm
05:16 PM 63.3°F17.4°C 57.0°F13.9°C 80% 1.6 mph SSE2.6 kmh SSE 4.9 mph7.9 kmh 30.14 in1020.7 mb 0.00 in0.0 mm 0.00 in0.0 mm 0.00 in0.0 mm
05:31 PM 63.1°F17.3°C 57.6°F14.2°C 82% 0.9 mph SSE1.4 kmh SSE 7.6 mph12.2 kmh 30.14 in1020.7 mb 0.00 in0.0 mm 0.00 in0.0 mm 0.00 in0.0 mm
05:46 PM 62.8°F17.1°C 57.2°F14.0°C 82% 1.3 mph SE2.1 kmh SE 4.9 mph7.9 kmh 30.14 in1020.7 mb 0.00 in0.0 mm 0.00 in0.0 mm 0.00 in0.0 mm
06:01 PM 62.6°F17.0°C 57.0°F13.9°C 82% Calm Calm 2.5 mph4.0 kmh 30.14 in1020.7 mb 0.00 in0.0 mm 0.00 in0.0 mm 0.00 in0.0 mm
06:16 PM 62.4°F16.9°C 56.1°F13.4°C 80% 1.6 mph SSE2.6 kmh SSE 4.9 mph7.9 kmh 30.15 in1021.0 mb 0.00 in0.0 mm 0.00 in0.0 mm 0.00 in0.0 mm
06:31 PM 62.2°F16.8°C 56.3°F13.5°C 81% Calm Calm 2.5 mph4.0 kmh 30.16 in1021.3 mb 0.00 in0.0 mm 0.00 in0.0 mm 0.00 in0.0 mm
06:46 PM 62.2°F16.8°C 57.7°F14.3°C 85% 2.5 mph NNW4.0 kmh NNW 4.9 mph7.9 kmh 30.16 in1021.3 mb 0.00 in0.0 mm 0.00 in0.0 mm 0.00 in0.0 mm
07:01 PM 61.7°F16.5°C 58.5°F14.7°C 89% 2.5 mph NNW4.0 kmh NNW 4.9 mph7.9 kmh 30.16 in1021.3 mb 0.01 in0.3 mm 0.01 in0.3 mm 0.01 in0.3 mm
07:16 PM 60.6°F15.9°C 57.9°F14.4°C 91% Calm Calm 4.9 mph7.9 kmh 30.17 in1021.7 mb 0.02 in0.5 mm 0.04 in1.0 mm 0.02 in0.5 mm
07:31 PM 60.3°F15.7°C 57.9°F14.4°C 92% 3.4 mph NNW5.5 kmh NNW 7.6 mph12.2 kmh 30.17 in1021.7 mb 0.02 in0.5 mm 0.00 in0.0 mm 0.02 in0.5 mm
07:46 PM 60.1°F15.6°C 58.1°F14.5°C 93% Calm Calm 7.6 mph12.2 kmh 30.18 in1022.0 mb 0.02 in0.5 mm 0.00 in0.0 mm 0.02 in0.5 mm
08:01 PM 59.9°F15.5°C 57.9°F14.4°C 93% Calm Calm 7.6 mph12.2 kmh 30.18 in1022.0 mb 0.01 in0.3 mm 0.00 in0.0 mm 0.02 in0.5 mm
08:16 PM 59.9°F15.5°C 57.9°F14.4°C 93% 2.5 mph NW4.0 kmh NW 4.9 mph7.9 kmh 30.18 in1022.0 mb 0.01 in0.3 mm 0.00 in0.0 mm 0.04 in1.0 mm
08:31 PM 59.7°F15.4°C 57.7°F14.3°C 93% 3.8 mph NW6.1 kmh NW 7.6 mph12.2 kmh 30.19 in1022.4 mb 0.01 in0.3 mm 0.00 in0.0 mm 0.04 in1.0 mm
08:46 PM 59.7°F15.4°C 57.7°F14.3°C 93% 2.9 mph NNW4.7 kmh NNW 7.6 mph12.2 kmh 30.19 in1022.4 mb 0.01 in0.3 mm 0.00 in0.0 mm 0.04 in1.0 mm
09:01 PM 59.9°F15.5°C 57.6°F14.2°C 92% 1.3 mph NNW2.1 kmh NNW 4.9 mph7.9 kmh 30.20 in1022.7 mb 0.01 in0.3 mm 0.00 in0.0 mm 0.04 in1.0 mm
09:17 PM 60.1°F15.6°C 57.7°F14.3°C 92% Calm Calm 4.9 mph7.9 kmh 30.20 in1022.7 mb 0.00 in0.0 mm 0.00 in0.0 mm 0.04 in1.0 mm
09:32 PM 60.1°F15.6°C 58.1°F14.5°C 93% 1.8 mph NNW2.9 kmh NNW 7.6 mph12.2 kmh 30.21 in1023.0 mb 0.00 in0.0 mm 0.00 in0.0 mm 0.04 in1.0 mm
09:47 PM 60.1°F15.6°C 58.1°F14.5°C 93% 1.8 mph NNW2.9 kmh NNW 7.6 mph12.2 kmh 30.21 in1023.0 mb 0.00 in0.0 mm 0.00 in0.0 mm 0.04 in1.0 mm
10:02 PM 60.1°F15.6°C 57.7°F14.3°C 92% 0.2 mph N0.3 kmh N 7.6 mph12.2 kmh 30.22 in1023.4 mb 0.00 in0.0 mm 0.00 in0.0 mm 0.04 in1.0 mm
10:17 PM 60.3°F15.7°C 57.9°F14.4°C 92% 1.8 mph NNW2.9 kmh NNW 4.9 mph7.9 kmh 30.22 in1023.4 mb 0.00 in0.0 mm 0.00 in0.0 mm 0.04 in1.0 mm
10:25 PM 60.3°F15.7°C 57.9°F14.4°C 92% 1.8 mph NNW2.9 kmh NNW -- 30.24 in1024.0 mb 0.00 in0.0 mm 0.00 in0.0 mm 0.04 in1.0 mm
10:40 PM 60.3°F15.7°C 57.9°F14.4°C 92% Calm Calm 7.6 mph12.2 kmh 30.23 in1023.7 mb 0.00 in0.0 mm 0.00 in0.0 mm 0.04 in1.0 mm
10:55 PM 60.1°F15.6°C 57.7°F14.3°C 92% 4.0 mph NE6.4 kmh NE 7.6 mph12.2 kmh 30.23 in1023.7 mb 0.00 in0.0 mm 0.00 in0.0 mm 0.04 in1.0 mm
11:10 PM 59.5°F15.3°C 56.3°F13.5°C 89% Calm Calm 10.1 mph16.3 kmh 30.23 in1023.7 mb 0.00 in0.0 mm 0.00 in0.0 mm 0.04 in1.0 mm
11:25 PM 59.2°F15.1°C 55.9°F13.3°C 89% 3.8 mph NNW6.1 kmh NNW 7.6 mph12.2 kmh 30.23 in1023.7 mb 0.00 in0.0 mm 0.00 in0.0 mm 0.04 in1.0 mm
11:41 PM 59.0°F15.0°C 55.8°F13.2°C 89% 4.0 mph NNW6.4 kmh NNW 12.5 mph20.1 kmh 30.23 in1023.7 mb 0.00 in0.0 mm 0.00 in0.0 mm 0.04 in1.0 mm
11:56 PM 58.8°F14.9°C 55.6°F13.1°C 89% 4.0 mph NNW6.4 kmh NNW 12.5 mph20.1 kmh 30.23 in1023.7 mb 0.00 in0.0 mm 0.00 in0.0 mm 0.04 in1.0 mm